Wind Surf — C6IO6 — position and weather

sailwx.info

Track history (hours):
 
Tides and Currents Weather Stations Pressure Air Temp Water Temp Dewpoint Dewpoint Depression Visibility Wind Speed Wind Dir Waves Ship Positions

Wind Surf

Operator: Holland America Line

Last reported at 2019-Oct-15 18:58 UTC. Time now 2019-Oct-17 15:10 UTC.
Position N 44°27' E 014°11'.

Length 187 m; draft 5.4 m.

Type: Passenger vessel. MMSI: 309242000.

Date/timePositionNaut miles runAvg speedWind from/ knotsBaromVisibWave heightAir tempDewpointWater temp
2019-Oct-15 18:58N 44°27' E 014°11'710.1
2019-Oct-15 18:16N 44°32' E 014°04'3 9.9
2019-Oct-15 18:01N 44°33' E 014°01'5 9.9
2019-Oct-15 17:30N 44°37' E 013°56'510.0
2019-Oct-15 17:00N 44°40' E 013°51'510.0
2019-Oct-15 16:30N 44°44' E 013°47'510.1
2019-Oct-15 16:00N 44°48' E 013°42'510.4
2019-Oct-15 15:31N 44°52' E 013°38'510.1
2019-Oct-15 15:01N 44°57' E 013°35'510.3
2019-Oct-15 14:30N 45°02' E 013°34'4 8.7
2019-Oct-15 14:00N 45°05' E 013°38'0 0.2
2019-Oct-15 13:26N 45°05' E 013°38'0 0.1
2019-Oct-15 12:59N 45°05' E 013°38'0 0.1
2019-Oct-15 12:26N 45°05' E 013°38'0 0.1
2019-Oct-15 11:59N 45°05' E 013°38'0 0.0
2019-Oct-15 11:29N 45°05' E 013°38'0 0.0
2019-Oct-15 10:59N 45°05' E 013°38'0 0.1
2019-Oct-15 10:29N 45°05' E 013°38'0 0.1
2019-Oct-15 09:59N 45°05' E 013°38'0 0.1
2019-Oct-15 09:29N 45°05' E 013°38'0 0.1
2019-Oct-15 08:59N 45°05' E 013°38'0 0.1
2019-Oct-15 08:29N 45°05' E 013°38'0 0.0
2019-Oct-15 07:59N 45°05' E 013°38'0 0.0
2019-Oct-15 07:29N 45°05' E 013°38'0 0.0
2019-Oct-15 06:56N 45°05' E 013°38'0 0.0
2019-Oct-15 06:29N 45°05' E 013°38'0 0.0
2019-Oct-15 05:59N 45°05' E 013°38'0 0.1
2019-Oct-15 05:29N 45°05' E 013°38'0 0.6
2019-Oct-15 05:00N 45°05' E 013°38'3 6.9
2019-Oct-15 04:30N 45°05' E 013°33'3 5.5
2019-Oct-15 04:00N 45°05' E 013°29'3 6.1
2019-Oct-15 03:30N 45°05' E 013°25'3 6.0
2019-Oct-15 03:00N 45°05' E 013°20'3 5.9
2019-Oct-15 02:30N 45°05' E 013°16'3 6.0
2019-Oct-15 02:00N 45°04' E 013°12'3 5.9
2019-Oct-15 01:30N 45°04' E 013°08'3 5.8
2019-Oct-15 01:00N 45°02' E 013°04'3 6.0
2019-Oct-15 00:30N 45°01' E 013°01'3 6.0
2019-Oct-15 00:00N 44°58' E 012°59'3 6.4
2019-Oct-14 23:30N 44°55' E 012°57'3 5.8
2019-Oct-14 23:00N 44°55' E 012°52'3 5.8
2019-Oct-14 22:30N 44°57' E 012°49'3 6.1
2019-Oct-14 22:00N 44°60' E 012°48'3 6.1
2019-Oct-14 21:30N 45°02' E 012°46'3 6.1
2019-Oct-14 21:00N 45°05' E 012°44'3 6.0
2019-Oct-14 20:30N 45°07' E 012°41'3 6.2
2019-Oct-14 20:00N 45°09' E 012°37'3 6.3
2019-Oct-14 19:30N 45°11' E 012°34'3 5.8
2019-Oct-14 19:00N 45°12' E 012°30'3 5.9
2019-Oct-14 18:30N 45°15' E 012°30'3 5.9
2019-Oct-14 18:00N 45°18' E 012°30'3 5.9
2019-Oct-14 17:30N 45°21' E 012°30'3 6.1
2019-Oct-14 17:00N 45°24' E 012°28'4 8.1
2019-Oct-14 16:30N 45°26' E 012°23'2 4.4
2019-Oct-14 16:00N 45°26' E 012°20'1 2.0
2019-Oct-14 15:28N 45°26' E 012°19'0 0.0
2019-Oct-14 14:58N 45°26' E 012°19'0 0.0
2019-Oct-14 14:28N 45°26' E 012°19'0 0.0
2019-Oct-14 13:58N 45°26' E 012°19'0 0.0
2019-Oct-14 13:28N 45°26' E 012°19'0 0.0
2019-Oct-14 12:58N 45°26' E 012°19'0 0.0
2019-Oct-14 12:28N 45°26' E 012°19'0 0.0
2019-Oct-14 11:58N 45°26' E 012°19'0 0.0
2019-Oct-14 11:28N 45°26' E 012°19'0 0.0
2019-Oct-14 10:58N 45°26' E 012°19'0 0.0
2019-Oct-14 10:28N 45°26' E 012°19'0 0.0
2019-Oct-14 09:58N 45°26' E 012°19'0 0.0
2019-Oct-14 09:28N 45°26' E 012°19'0 0.0
2019-Oct-14 08:58N 45°26' E 012°19'0 0.0
2019-Oct-14 08:28N 45°26' E 012°19'0 0.0
2019-Oct-14 07:58N 45°26' E 012°19'0 0.0
2019-Oct-14 07:28N 45°26' E 012°19'0 0.0
2019-Oct-14 06:58N 45°26' E 012°19'0 0.0
2019-Oct-14 06:28N 45°26' E 012°19'0 0.0
2019-Oct-14 05:58N 45°26' E 012°19'0 0.0
2019-Oct-14 05:28N 45°26' E 012°19'0 0.0
2019-Oct-14 04:58N 45°26' E 012°19'0 0.0
2019-Oct-14 04:28N 45°26' E 012°19'0 0.0
2019-Oct-14 04:00N 45°26' E 012°19'1 1.8
2019-Oct-14 03:30N 45°26' E 012°20'2 4.6
2019-Oct-14 03:00N 45°26' E 012°23'4 7.8
2019-Oct-14 02:30N 45°24' E 012°28'3 6.5
2019-Oct-14 02:00N 45°22' E 012°32'4 7.3
2019-Oct-14 01:30N 45°19' E 012°32'3 6.9
2019-Oct-14 01:00N 45°16' E 012°34'3 6.8
2019-Oct-14 00:30N 45°13' E 012°38'4 7.1
2019-Oct-14 00:00N 45°11' E 012°42'4 7.3
2019-Oct-13 23:30N 45°09' E 012°46'4 7.3
2019-Oct-13 23:00N 45°06' E 012°49'4 7.5
2019-Oct-13 22:30N 45°03' E 012°52'4 7.7
2019-Oct-13 22:00N 44°59' E 012°54'3 6.5
2019-Oct-13 21:30N 44°57' E 012°58'4 7.6
2019-Oct-13 21:00N 45°00' E 013°01'3 6.9
2019-Oct-13 20:30N 45°03' E 013°04'4 7.2
2019-Oct-13 20:00N 45°03' E 013°09'4 7.7
2019-Oct-13 19:30N 45°04' E 013°15'4 7.5
2019-Oct-13 19:00N 45°05' E 013°20'4 7.5
2019-Oct-13 18:30N 45°05' E 013°25'4 7.4
2019-Oct-13 18:00N 45°05' E 013°30'4 7.5
2019-Oct-13 17:30N 45°05' E 013°36'2 3.3
2019-Oct-13 17:00N 45°05' E 013°38'0 0.1
2019-Oct-13 16:23N 45°05' E 013°38'0 0.0
2019-Oct-13 15:59N 45°05' E 013°38'0 0.0
2019-Oct-13 15:29N 45°05' E 013°38'0 0.0
2019-Oct-13 14:59N 45°05' E 013°38'0 0.0
2019-Oct-13 14:29N 45°05' E 013°38'0 0.0
2019-Oct-13 13:47N 45°05' E 013°38'0 0.0
2019-Oct-13 13:26N 45°05' E 013°38'0 0.0
2019-Oct-13 12:53N 45°05' E 013°38'0 0.0
2019-Oct-13 12:26N 45°05' E 013°38'0 0.0
2019-Oct-13 11:59N 45°05' E 013°38'0 0.0
2019-Oct-13 11:29N 45°05' E 013°38'0 0.0
2019-Oct-13 10:59N 45°05' E 013°38'0 0.0
2019-Oct-13 10:29N 45°05' E 013°38'0 0.1
2019-Oct-13 09:59N 45°05' E 013°38'0 0.0
2019-Oct-13 09:29N 45°05' E 013°38'0 0.0
2019-Oct-13 08:59N 45°05' E 013°38'0 0.0
2019-Oct-13 08:29N 45°05' E 013°38'0 0.0
2019-Oct-13 07:59N 45°05' E 013°38'0 0.0
2019-Oct-13 07:29N 45°05' E 013°38'0 0.0
2019-Oct-13 06:56N 45°05' E 013°38'0 0.0
2019-Oct-13 06:29N 45°05' E 013°38'1 1.3
2019-Oct-13 06:00N 45°05' E 013°37'4 8.5
2019-Oct-13 05:30N 45°01' E 013°34'510.1
2019-Oct-13 05:00N 44°56' E 013°34'510.3
2019-Oct-13 04:30N 44°52' E 013°38'511.0
2019-Oct-13 04:00N 44°48' E 013°43'611.3
2019-Oct-13 03:30N 44°43' E 013°48'611.3
2019-Oct-13 03:00N 44°39' E 013°54'611.5
2019-Oct-13 02:30N 44°35' E 013°59'611.5
2019-Oct-13 02:00N 44°31' E 014°05'611.3
2019-Oct-13 01:30N 44°27' E 014°10'1311.1
2019-Oct-13 00:21N 44°19' E 014°24'  
2019-Oct-09 00:56N 38°12' E 016°32'4 8.4
2019-Oct-09 00:30N 38°09' E 016°29'30 7.3
2019-Oct-08 20:21N 37°50' E 015°59'2 7.0
2019-Oct-08 20:00N 37°50' E 015°56'4 7.0
2019-Oct-08 19:30N 37°50' E 015°52'4 7.5
2019-Oct-08 19:00N 37°50' E 015°47'5 9.1
2019-Oct-08 18:30N 37°53' E 015°42'510.1
2019-Oct-08 18:00N 37°56' E 015°37'5 8.9
2019-Oct-08 17:30N 38°00' E 015°35'5 9.6
2019-Oct-08 17:00N 38°05' E 015°35'5 9.8
2019-Oct-08 16:30N 38°10' E 015°35'3 4.9
2019-Oct-08 15:58N 38°12' E 015°33'0 0.0
2019-Oct-08 15:28N 38°12' E 015°33'0 0.0
2019-Oct-08 14:58N 38°12' E 015°33'0 0.0
2019-Oct-08 14:28N 38°12' E 015°33'0 0.0
2019-Oct-08 13:58N 38°12' E 015°33'0 0.0
2019-Oct-08 13:28N 38°12' E 015°33'0 0.0
2019-Oct-08 12:58N 38°12' E 015°33'0 0.0
2019-Oct-08 12:28N 38°12' E 015°33'0 0.0
2019-Oct-08 11:58N 38°12' E 015°33'0 0.0
2019-Oct-08 11:28N 38°12' E 015°33'0 0.0
2019-Oct-08 10:55N 38°12' E 015°33'0 0.0
2019-Oct-08 10:28N 38°12' E 015°33'0 0.0
2019-Oct-08 09:58N 38°12' E 015°33'0 0.0
2019-Oct-08 09:28N 38°12' E 015°33'0 0.0
2019-Oct-08 08:58N 38°12' E 015°33'0 0.0
2019-Oct-08 08:28N 38°12' E 015°33'0 0.3
2019-Oct-08 08:00N 38°12' E 015°34'5 9.4
2019-Oct-08 07:30N 38°15' E 015°38'4 7.4
2019-Oct-08 07:00N 38°19' E 015°39'5 8.9
2019-Oct-08 06:30N 38°23' E 015°37'4 9.1
2019-Oct-08 06:00N 38°27' E 015°34'5 9.2
2019-Oct-08 05:30N 38°31' E 015°32'5 9.3
2019-Oct-08 05:00N 38°35' E 015°29'5 9.2
2019-Oct-08 04:30N 38°39' E 015°27'5 9.4
2019-Oct-08 04:00N 38°44' E 015°24'5 9.5
2019-Oct-08 03:30N 38°48' E 015°22'510.3
2019-Oct-08 02:59N 38°53' E 015°19'510.4
2019-Oct-08 02:29N 38°57' E 015°16'8210.6
2019-Oct-07 18:46N 40°12' E 014°31'3 9.2
2019-Oct-07 18:29N 40°14' E 014°30'4 9.1
2019-Oct-07 18:00N 40°18' E 014°27'5 9.0
2019-Oct-07 17:30N 40°22' E 014°24'5 9.1
2019-Oct-07 17:00N 40°26' E 014°22'5 9.5
2019-Oct-07 16:30N 40°30' E 014°19'5 9.7
2019-Oct-07 16:00N 40°35' E 014°17'5 9.5
2019-Oct-07 15:30N 40°39' E 014°20'2 4.4
2019-Oct-07 15:00N 40°38' E 014°23'0 0.1
2019-Oct-07 14:29N 40°38' E 014°23'0 0.0
2019-Oct-07 13:59N 40°38' E 014°23'0 0.1
2019-Oct-07 13:29N 40°38' E 014°23'0 0.1
2019-Oct-07 12:59N 40°38' E 014°23'0 0.1
2019-Oct-07 12:29N 40°38' E 014°23'0 0.1
2019-Oct-07 11:59N 40°38' E 014°23'0 0.0
2019-Oct-07 11:29N 40°38' E 014°23'0 0.0
2019-Oct-07 10:59N 40°38' E 014°23'0 0.0
2019-Oct-07 10:29N 40°38' E 014°23'0 0.0
2019-Oct-07 09:50N 40°38' E 014°23'0 0.0
2019-Oct-07 09:20N 40°38' E 014°23'0 0.0
2019-Oct-07 08:56N 40°38' E 014°23'0 0.0
2019-Oct-07 08:20N 40°38' E 014°23'0 0.0
2019-Oct-07 07:53N 40°38' E 014°23'0 0.0
2019-Oct-07 07:29N 40°38' E 014°23'0 0.0
2019-Oct-07 06:53N 40°38' E 014°23'0 0.0
2019-Oct-07 06:23N 40°38' E 014°23'0 0.0
2019-Oct-07 05:59N 40°38' E 014°23'0 0.1
2019-Oct-07 05:26N 40°38' E 014°23'0 0.0
2019-Oct-07 04:56N 40°38' E 014°23'0 0.2
2019-Oct-07 04:30N 40°38' E 014°23'4 8.1
2019-Oct-07 04:00N 40°39' E 014°18'510.8
2019-Oct-07 03:30N 40°39' E 014°10'611.1
2019-Oct-07 03:00N 40°39' E 014°03'1110.8
2019-Oct-07 02:00N 40°40' E 013°49'510.9
2019-Oct-07 01:30N 40°42' E 013°43'611.1
2019-Oct-07 01:00N 40°46' E 013°37'611.3
2019-Oct-07 00:29N 40°50' E 013°31'  
Track history (hours):
 
Tides and Currents Weather Stations Pressure Air Temp Water Temp Dewpoint Dewpoint Depression Visibility Wind Speed Wind Dir Waves Ship Positions

Wind Surf

Operator: Holland America Line

Last reported at 2019-Oct-15 18:58 UTC. Time now 2019-Oct-17 15:10 UTC.
Position N 44°27' E 014°11'.

Length 187 m; draft 5.4 m.

Type: Passenger vessel. MMSI: 309242000.

Date/timePositionNaut miles runAvg speedWind from/ knotsBaromVisibWave heightAir tempDewpointWater temp
2019-Oct-15 18:58N 44°27' E 014°11'710.1
2019-Oct-15 18:16N 44°32' E 014°04'3 9.9
2019-Oct-15 18:01N 44°33' E 014°01'5 9.9
2019-Oct-15 17:30N 44°37' E 013°56'510.0
2019-Oct-15 17:00N 44°40' E 013°51'510.0
2019-Oct-15 16:30N 44°44' E 013°47'510.1
2019-Oct-15 16:00N 44°48' E 013°42'510.4
2019-Oct-15 15:31N 44°52' E 013°38'510.1
2019-Oct-15 15:01N 44°57' E 013°35'510.3
2019-Oct-15 14:30N 45°02' E 013°34'4 8.7
2019-Oct-15 14:00N 45°05' E 013°38'0 0.2
2019-Oct-15 13:26N 45°05' E 013°38'0 0.1
2019-Oct-15 12:59N 45°05' E 013°38'0 0.1
2019-Oct-15 12:26N 45°05' E 013°38'0 0.1
2019-Oct-15 11:59N 45°05' E 013°38'0 0.0
2019-Oct-15 11:29N 45°05' E 013°38'0 0.0
2019-Oct-15 10:59N 45°05' E 013°38'0 0.1
2019-Oct-15 10:29N 45°05' E 013°38'0 0.1
2019-Oct-15 09:59N 45°05' E 013°38'0 0.1
2019-Oct-15 09:29N 45°05' E 013°38'0 0.1
2019-Oct-15 08:59N 45°05' E 013°38'0 0.1
2019-Oct-15 08:29N 45°05' E 013°38'0 0.0
2019-Oct-15 07:59N 45°05' E 013°38'0 0.0
2019-Oct-15 07:29N 45°05' E 013°38'0 0.0
2019-Oct-15 06:56N 45°05' E 013°38'0 0.0
2019-Oct-15 06:29N 45°05' E 013°38'0 0.0
2019-Oct-15 05:59N 45°05' E 013°38'0 0.1
2019-Oct-15 05:29N 45°05' E 013°38'0 0.6
2019-Oct-15 05:00N 45°05' E 013°38'3 6.9
2019-Oct-15 04:30N 45°05' E 013°33'3 5.5
2019-Oct-15 04:00N 45°05' E 013°29'3 6.1
2019-Oct-15 03:30N 45°05' E 013°25'3 6.0
2019-Oct-15 03:00N 45°05' E 013°20'3 5.9
2019-Oct-15 02:30N 45°05' E 013°16'3 6.0
2019-Oct-15 02:00N 45°04' E 013°12'3 5.9
2019-Oct-15 01:30N 45°04' E 013°08'3 5.8
2019-Oct-15 01:00N 45°02' E 013°04'3 6.0
2019-Oct-15 00:30N 45°01' E 013°01'3 6.0
2019-Oct-15 00:00N 44°58' E 012°59'3 6.4
2019-Oct-14 23:30N 44°55' E 012°57'3 5.8
2019-Oct-14 23:00N 44°55' E 012°52'3 5.8
2019-Oct-14 22:30N 44°57' E 012°49'3 6.1
2019-Oct-14 22:00N 44°60' E 012°48'3 6.1
2019-Oct-14 21:30N 45°02' E 012°46'3 6.1
2019-Oct-14 21:00N 45°05' E 012°44'3 6.0
2019-Oct-14 20:30N 45°07' E 012°41'3 6.2
2019-Oct-14 20:00N 45°09' E 012°37'3 6.3
2019-Oct-14 19:30N 45°11' E 012°34'3 5.8
2019-Oct-14 19:00N 45°12' E 012°30'3 5.9
2019-Oct-14 18:30N 45°15' E 012°30'3 5.9
2019-Oct-14 18:00N 45°18' E 012°30'3 5.9
2019-Oct-14 17:30N 45°21' E 012°30'3 6.1
2019-Oct-14 17:00N 45°24' E 012°28'4 8.1
2019-Oct-14 16:30N 45°26' E 012°23'2 4.4
2019-Oct-14 16:00N 45°26' E 012°20'1 2.0
2019-Oct-14 15:28N 45°26' E 012°19'0 0.0
2019-Oct-14 14:58N 45°26' E 012°19'0 0.0
2019-Oct-14 14:28N 45°26' E 012°19'0 0.0
2019-Oct-14 13:58N 45°26' E 012°19'0 0.0
2019-Oct-14 13:28N 45°26' E 012°19'0 0.0
2019-Oct-14 12:58N 45°26' E 012°19'0 0.0
2019-Oct-14 12:28N 45°26' E 012°19'0 0.0
2019-Oct-14 11:58N 45°26' E 012°19'0 0.0
2019-Oct-14 11:28N 45°26' E 012°19'0 0.0
2019-Oct-14 10:58N 45°26' E 012°19'0 0.0
2019-Oct-14 10:28N 45°26' E 012°19'0 0.0
2019-Oct-14 09:58N 45°26' E 012°19'0 0.0
2019-Oct-14 09:28N 45°26' E 012°19'0 0.0
2019-Oct-14 08:58N 45°26' E 012°19'0 0.0
2019-Oct-14 08:28N 45°26' E 012°19'0 0.0
2019-Oct-14 07:58N 45°26' E 012°19'0 0.0
2019-Oct-14 07:28N 45°26' E 012°19'0 0.0
2019-Oct-14 06:58N 45°26' E 012°19'0 0.0
2019-Oct-14 06:28N 45°26' E 012°19'0 0.0
2019-Oct-14 05:58N 45°26' E 012°19'0 0.0
2019-Oct-14 05:28N 45°26' E 012°19'0 0.0
2019-Oct-14 04:58N 45°26' E 012°19'0 0.0
2019-Oct-14 04:28N 45°26' E 012°19'0 0.0
2019-Oct-14 04:00N 45°26' E 012°19'1 1.8
2019-Oct-14 03:30N 45°26' E 012°20'2 4.6
2019-Oct-14 03:00N 45°26' E 012°23'4 7.8
2019-Oct-14 02:30N 45°24' E 012°28'3 6.5
2019-Oct-14 02:00N 45°22' E 012°32'4 7.3
2019-Oct-14 01:30N 45°19' E 012°32'3 6.9
2019-Oct-14 01:00N 45°16' E 012°34'3 6.8
2019-Oct-14 00:30N 45°13' E 012°38'4 7.1
2019-Oct-14 00:00N 45°11' E 012°42'4 7.3
2019-Oct-13 23:30N 45°09' E 012°46'4 7.3
2019-Oct-13 23:00N 45°06' E 012°49'4 7.5
2019-Oct-13 22:30N 45°03' E 012°52'4 7.7
2019-Oct-13 22:00N 44°59' E 012°54'3 6.5
2019-Oct-13 21:30N 44°57' E 012°58'4 7.6
2019-Oct-13 21:00N 45°00' E 013°01'3 6.9
2019-Oct-13 20:30N 45°03' E 013°04'4 7.2
2019-Oct-13 20:00N 45°03' E 013°09'4 7.7
2019-Oct-13 19:30N 45°04' E 013°15'4 7.5
2019-Oct-13 19:00N 45°05' E 013°20'4 7.5
2019-Oct-13 18:30N 45°05' E 013°25'4 7.4
2019-Oct-13 18:00N 45°05' E 013°30'4 7.5
2019-Oct-13 17:30N 45°05' E 013°36'2 3.3
2019-Oct-13 17:00N 45°05' E 013°38'0 0.1
2019-Oct-13 16:23N 45°05' E 013°38'0 0.0
2019-Oct-13 15:59N 45°05' E 013°38'0 0.0
2019-Oct-13 15:29N 45°05' E 013°38'0 0.0
2019-Oct-13 14:59N 45°05' E 013°38'0 0.0
2019-Oct-13 14:29N 45°05' E 013°38'0 0.0
2019-Oct-13 13:47N 45°05' E 013°38'0 0.0
2019-Oct-13 13:26N 45°05' E 013°38'0 0.0
2019-Oct-13 12:53N 45°05' E 013°38'0 0.0
2019-Oct-13 12:26N 45°05' E 013°38'0 0.0
2019-Oct-13 11:59N 45°05' E 013°38'0 0.0
2019-Oct-13 11:29N 45°05' E 013°38'0 0.0
2019-Oct-13 10:59N 45°05' E 013°38'0 0.0
2019-Oct-13 10:29N 45°05' E 013°38'0 0.1
2019-Oct-13 09:59N 45°05' E 013°38'0 0.0
2019-Oct-13 09:29N 45°05' E 013°38'0 0.0
2019-Oct-13 08:59N 45°05' E 013°38'0 0.0
2019-Oct-13 08:29N 45°05' E 013°38'0 0.0
2019-Oct-13 07:59N 45°05' E 013°38'0 0.0
2019-Oct-13 07:29N 45°05' E 013°38'0 0.0
2019-Oct-13 06:56N 45°05' E 013°38'0 0.0
2019-Oct-13 06:29N 45°05' E 013°38'1 1.3
2019-Oct-13 06:00N 45°05' E 013°37'4 8.5
2019-Oct-13 05:30N 45°01' E 013°34'510.1
2019-Oct-13 05:00N 44°56' E 013°34'510.3
2019-Oct-13 04:30N 44°52' E 013°38'511.0
2019-Oct-13 04:00N 44°48' E 013°43'611.3
2019-Oct-13 03:30N 44°43' E 013°48'611.3
2019-Oct-13 03:00N 44°39' E 013°54'611.5
2019-Oct-13 02:30N 44°35' E 013°59'611.5
2019-Oct-13 02:00N 44°31' E 014°05'611.3
2019-Oct-13 01:30N 44°27' E 014°10'1311.1
2019-Oct-13 00:21N 44°19' E 014°24'  
2019-Oct-09 00:56N 38°12' E 016°32'4 8.4
2019-Oct-09 00:30N 38°09' E 016°29'30 7.3
2019-Oct-08 20:21N 37°50' E 015°59'2 7.0
2019-Oct-08 20:00N 37°50' E 015°56'4 7.0
2019-Oct-08 19:30N 37°50' E 015°52'4 7.5
2019-Oct-08 19:00N 37°50' E 015°47'5 9.1
2019-Oct-08 18:30N 37°53' E 015°42'510.1
2019-Oct-08 18:00N 37°56' E 015°37'5 8.9
2019-Oct-08 17:30N 38°00' E 015°35'5 9.6
2019-Oct-08 17:00N 38°05' E 015°35'5 9.8
2019-Oct-08 16:30N 38°10' E 015°35'3 4.9
2019-Oct-08 15:58N 38°12' E 015°33'0 0.0
2019-Oct-08 15:28N 38°12' E 015°33'0 0.0
2019-Oct-08 14:58N 38°12' E 015°33'0 0.0
2019-Oct-08 14:28N 38°12' E 015°33'0 0.0
2019-Oct-08 13:58N 38°12' E 015°33'0 0.0
2019-Oct-08 13:28N 38°12' E 015°33'0 0.0
2019-Oct-08 12:58N 38°12' E 015°33'0 0.0
2019-Oct-08 12:28N 38°12' E 015°33'0 0.0
2019-Oct-08 11:58N 38°12' E 015°33'0 0.0
2019-Oct-08 11:28N 38°12' E 015°33'0 0.0
2019-Oct-08 10:55N 38°12' E 015°33'0 0.0
2019-Oct-08 10:28N 38°12' E 015°33'0 0.0
2019-Oct-08 09:58N 38°12' E 015°33'0 0.0
2019-Oct-08 09:28N 38°12' E 015°33'0 0.0
2019-Oct-08 08:58N 38°12' E 015°33'0 0.0
2019-Oct-08 08:28N 38°12' E 015°33'0 0.3
2019-Oct-08 08:00N 38°12' E 015°34'5 9.4
2019-Oct-08 07:30N 38°15' E 015°38'4 7.4
2019-Oct-08 07:00N 38°19' E 015°39'5 8.9
2019-Oct-08 06:30N 38°23' E 015°37'4 9.1
2019-Oct-08 06:00N 38°27' E 015°34'5 9.2
2019-Oct-08 05:30N 38°31' E 015°32'5 9.3
2019-Oct-08 05:00N 38°35' E 015°29'5 9.2
2019-Oct-08 04:30N 38°39' E 015°27'5 9.4
2019-Oct-08 04:00N 38°44' E 015°24'5 9.5
2019-Oct-08 03:30N 38°48' E 015°22'510.3
2019-Oct-08 02:59N 38°53' E 015°19'510.4
2019-Oct-08 02:29N 38°57' E 015°16'8210.6
2019-Oct-07 18:46N 40°12' E 014°31'3 9.2
2019-Oct-07 18:29N 40°14' E 014°30'4 9.1
2019-Oct-07 18:00N 40°18' E 014°27'5 9.0
2019-Oct-07 17:30N 40°22' E 014°24'5 9.1
2019-Oct-07 17:00N 40°26' E 014°22'5 9.5
2019-Oct-07 16:30N 40°30' E 014°19'5 9.7
2019-Oct-07 16:00N 40°35' E 014°17'5 9.5
2019-Oct-07 15:30N 40°39' E 014°20'2 4.4
2019-Oct-07 15:00N 40°38' E 014°23'0 0.1
2019-Oct-07 14:29N 40°38' E 014°23'0 0.0
2019-Oct-07 13:59N 40°38' E 014°23'0 0.1
2019-Oct-07 13:29N 40°38' E 014°23'0 0.1
2019-Oct-07 12:59N 40°38' E 014°23'0 0.1
2019-Oct-07 12:29N 40°38' E 014°23'0 0.1
2019-Oct-07 11:59N 40°38' E 014°23'0 0.0
2019-Oct-07 11:29N 40°38' E 014°23'0 0.0
2019-Oct-07 10:59N 40°38' E 014°23'0 0.0
2019-Oct-07 10:29N 40°38' E 014°23'0 0.0
2019-Oct-07 09:50N 40°38' E 014°23'0 0.0
2019-Oct-07 09:20N 40°38' E 014°23'0 0.0
2019-Oct-07 08:56N 40°38' E 014°23'0 0.0
2019-Oct-07 08:20N 40°38' E 014°23'0 0.0
2019-Oct-07 07:53N 40°38' E 014°23'0 0.0
2019-Oct-07 07:29N 40°38' E 014°23'0 0.0
2019-Oct-07 06:53N 40°38' E 014°23'0 0.0
2019-Oct-07 06:23N 40°38' E 014°23'0 0.0
2019-Oct-07 05:59N 40°38' E 014°23'0 0.1
2019-Oct-07 05:26N 40°38' E 014°23'0 0.0
2019-Oct-07 04:56N 40°38' E 014°23'0 0.2
2019-Oct-07 04:30N 40°38' E 014°23'4 8.1
2019-Oct-07 04:00N 40°39' E 014°18'510.8
2019-Oct-07 03:30N 40°39' E 014°10'611.1
2019-Oct-07 03:00N 40°39' E 014°03'1110.8
2019-Oct-07 02:00N 40°40' E 013°49'510.9
2019-Oct-07 01:30N 40°42' E 013°43'611.1
2019-Oct-07 01:00N 40°46' E 013°37'611.3
2019-Oct-07 00:29N 40°50' E 013°31'  

Dump ship's entire track history